CSN3 weather

St-Jérôme Airport
St-Jérôme, Quebec, Canada

Public forecast

Using degrees Celsius for public forecast. Weather courtesy of forecast.io.

Closest aviation weather report (METAR) to St-Jérôme Airport

Closest report is Montreal International (Mirabel) Airport, 6.1 nm (11.4 km) S. Retrieved 2019/10/19 10:00 UTC (42 minutes ago):

CYMX 191000Z 26005KT 25SM FEW220 00/M01 A3002 RMK CI1 CI TR SLP171

Closest aviation forecast (TAF) to St-Jérôme Airport

Closest forecast is Montreal International (Mirabel) Airport, 6.1 nm (11.4 km) S. Retrieved 2019/10/19 06:42 UTC (4 hours ago):

TAF CYMX 190538Z 1906/2006 26005KT P6SM SKC FM190800 VRB03KT P6SM SKC PROB30 1908/1912 3/4SM BR FM191800 24006KT P6SM SKC BECMG 1922/1924 VRB03KT FM200300 VRB03KT P6SM SKC PROB30 2003/2006 1/2SM FG RMK NXT FCST BY 191200Z